ADDS METAR Data INFO
IDs: Format: Raw Decoded Include TAF

Data at: 0930 UTC 17 Oct 2017

KRIL 170853Z AUTO 00000KT 10SM CLR M01/M10 A3042 RMK AO2 SLP276 T10061100 51003
KRIL 170753Z AUTO 12006KT 10SM CLR 00/M09 A3041 RMK AO2 SLP280 T00001094
KRIL 170653Z AUTO 00000KT 10SM CLR 02/M11 A3041 RMK AO2 SLPNO T00171106 402111039
KRIL 170553Z AUTO 00000KT 10SM CLR 03/M11 A3040 RMK AO2 SLP281 T00331106 10183 20028 51010
KRIL 170453Z AUTO 00000KT 10SM CLR 04/M09 A3040 RMK AO2 SLP285 T00441094
KRIL 170353Z AUTO 12006KT 10SM CLR 07/M12 A3038 RMK AO2 SLP281 T00721117
KRIL 170253Z AUTO 12005KT 10SM CLR 09/M12 A3037 RMK AO2 SLP278 T00891117 53014
KRIL 170153Z AUTO 16008KT 10SM CLR 13/M13 A3035 RMK AO2 SLP273 T01281133
KRIL 170053Z AUTO 25008KT 10SM CLR 16/M17 A3033 RMK AO2 SLP259 T01611172
KRIL 162353Z AUTO 26012KT 10SM CLR 18/M15 A3032 RMK AO2 SLP248 6//// T01831150 10211 20111 56007
KRIL 162253Z AUTO 26019KT 10SM CLR 21/M15 A3033 RMK AO2 SLP245 T02061150
KRIL 162153Z AUTO 25016KT 10SM CLR 21/M16 A3033 RMK AO2 WSHFT 2059 SLP244 T02111161
KRIL 162119Z AUTO 26014G19KT 10SM CLR 21/M16 A3034 RMK AO2 WSHFT 2059 T02061156
KRIL 162053Z AUTO 29006KT 10SM CLR 19/M11 A3035 RMK AO2 SLP250 6//// T01941106 58036
KRIL 161953Z AUTO 30006KT 10SM CLR 16/M10 A3039 RMK AO2 SLP271 T01611100
KRIL 161853Z AUTO A3043 RMK AO2 SLPNO PWINO FZRANO PNO $
KRIL 161753Z AUTO 00000KT 10SM CLR 11/M08 A3047 RMK AO2 SLP305 T01111083 10111 21039 58017 $
KRIL 161653Z AUTO 00000KT 10SM CLR 08/M08 A3050 RMK AO2 SLP321 T00781078
KRIL 161553Z AUTO 00000KT 10SM CLR 04/M07 A3052 RMK AO2 SLP334 T00391067
KRIL 161453Z AUTO 00000KT 10SM CLR 01/M07 A3053 RMK AO2 SLP342 T00061072 53006
KRIL 161353Z AUTO 00000KT 10SM CLR M03/M08 A3052 RMK AO2 SLP345 T10331083 $
KRIL 161253Z AUTO 00000KT 10SM CLR M03/M08 A3052 RMK AO2 SLP337 T10331083 $
KRIL 161153Z AUTO 00000KT 10SM CLR M02/M08 A3051 RMK AO2 SLP318 T10221083 10028 21028 53003 $
KRIL 161053Z AUTO 00000KT 10SM CLR M02/M08 A3050 RMK AO2 SLP311 T10221083 $
KRIL 160953Z AUTO 00000KT 10SM CLR M01/M08 A3049 RMK AO2 SLP310 T10111078 $
KRIL 160853Z AUTO 00000KT 10SM CLR 00/M08 A3050 RMK AO2 SLP312 T00001078 52002 $
KRIL 160753Z AUTO 00000KT 10SM CLR 00/M08 A3050 RMK AO2 SLP317 T00001078 $
KRIL 160653Z AUTO 00000KT 10SM CLR 01/M07 A3049 RMK AO2 SLP317 T00061072 401781061 $
KRIL 160553Z AUTO 00000KT 10SM CLR 03/M08 A3049 RMK AO2 SLP317 T00281078 10161 20022 50007 $
KRIL 160453Z AUTO 00000KT 10SM CLR 04/M08 A3049 RMK AO2 SLP322 T00441078 $
KRIL 160353Z AUTO 00000KT 10SM CLR 04/M08 A3049 RMK AO2 SLP325 T00441078 $
KRIL 160253Z AUTO 13005KT 10SM CLR 06/M08 A3047 RMK AO2 SLP325 T00561078 53012 $
KRIL 160153Z AUTO 13005KT 10SM CLR 07/M08 A3045 RMK AO2 SLP322 T00721078 $
KRIL 160053Z AUTO 20006KT 10SM CLR 10/M08 A3043 RMK AO2 SLP310 T01001083 $
KRIL 152353Z AUTO 00000KT 10SM CLR 16/M12 A3042 RMK AO2 SLP293 T01611122 10178 20089 56011 $
KRIL 152253Z AUTO 00000KT 10SM CLR 17/M14 A3042 RMK AO2 SLP291 T01721144 $
KRIL 152153Z AUTO 00000KT 10SM CLR 17/M16 A3044 RMK AO2 SLP296 T01671156 $